Time;durP1;ratioP1;P1;durP2;ratioP2;P2;SDS_P1;SDS_P2;PMS_P1;PMS_P2;Temp;Humidity;BMP_temperature;BMP_pressure;BME280_temperature;BME280_humidity;BME280_pressure;Samples;Min_cycle;Max_cycle;Signal;HPM_P1;HPM_P2
2021/04/10 00:01:43;;;;;;;21.67;12.60;;;5.30;97.30;;;;;;5013398;28;20201;-86
2021/04/10 00:04:12;;;;;;;23.53;12.00;;;5.30;97.30;;;;;;5013525;28;20256;-86
2021/04/10 00:06:38;;;;;;;27.57;13.03;;;5.20;97.30;;;;;;5013270;28;20174;-86
2021/04/10 00:09:07;;;;;;;30.47;14.70;;;5.20;97.30;;;;;;5013214;28;20488;-86
2021/04/10 00:11:34;;;;;;;22.60;12.07;;;5.20;97.30;;;;;;5004537;28;20535;-86
2021/04/10 00:14:00;;;;;;;25.27;14.00;;;5.20;97.30;;;;;;5013533;28;20419;-86
2021/04/10 00:16:25;;;;;;;28.00;12.60;;;5.20;97.30;;;;;;5013338;28;20420;-86
2021/04/10 00:19:24;;;;;;;21.77;12.20;;;5.20;97.30;;;;;;5025157;23;20274;-86
2021/04/10 00:21:52;;;;;;;23.40;12.40;;;5.20;97.30;;;;;;5004088;28;20217;-86
2021/04/10 00:24:25;;;;;;;25.80;13.13;;;5.20;97.30;;;;;;5012921;28;20503;-86
2021/04/10 00:26:53;;;;;;;24.97;13.43;;;5.20;97.30;;;;;;5013306;28;20403;-86
2021/04/10 00:29:19;;;;;;;28.97;14.03;;;5.10;97.30;;;;;;5014124;28;20456;-86
2021/04/10 00:31:44;;;;;;;26.17;12.60;;;5.10;97.30;;;;;;5013883;28;20424;-86
2021/04/10 00:34:10;;;;;;;26.53;14.10;;;5.20;97.30;;;;;;5039259;23;20241;-88
2021/04/10 00:36:36;;;;;;;23.37;13.30;;;5.20;97.30;;;;;;5018259;28;20223;-88
2021/04/10 00:39:01;;;;;;;24.60;14.17;;;5.30;97.30;;;;;;5016771;28;20169;-88
2021/04/10 00:41:27;;;;;;;28.70;13.60;;;5.40;97.30;;;;;;5016504;28;20201;-88
2021/04/10 00:43:53;;;;;;;30.37;14.97;;;5.40;97.30;;;;;;5016504;28;20225;-88
2021/04/10 00:46:19;;;;;;;25.97;12.80;;;5.50;97.30;;;;;;5016163;28;20412;-88
2021/04/10 00:48:44;;;;;;;28.83;13.07;;;5.50;97.30;;;;;;5016481;28;20181;-88
2021/04/10 00:51:10;;;;;;;25.53;13.27;;;5.50;97.30;;;;;;5018409;28;20184;-88
2021/04/10 00:53:36;;;;;;;25.43;12.50;;;5.50;97.30;;;;;;5016212;28;20295;-88
2021/04/10 00:56:05;;;;;;;25.07;13.00;;;5.50;97.30;;;;;;5016373;28;20188;-88
2021/04/10 00:58:32;;;;;;;23.80;12.60;;;5.50;97.30;;;;;;5016584;28;20452;-88
2021/04/10 01:00:57;;;;;;;27.43;12.80;;;5.60;97.30;;;;;;5016313;28;20460;-89
2021/04/10 01:14:02;;;;;;;34.20;13.67;;;5.70;97.30;;;;;;5035014;28;20482;-88
2021/04/10 01:16:34;;;;;;;31.83;13.00;;;5.70;97.30;;;;;;5041140;28;20433;-88
2021/04/10 01:19:26;;;;;;;23.27;12.97;;;5.80;97.30;;;;;;5036380;28;20408;-89
2021/04/10 01:22:03;;;;;;;25.10;12.97;;;5.80;97.30;;;;;;5036217;28;20560;-89
2021/04/10 01:24:33;;;;;;;25.70;12.37;;;5.80;97.30;;;;;;5038465;23;20566;-85
2021/04/10 01:27:20;;;;;;;25.27;13.10;;;5.80;97.30;;;;;;5011300;28;20778;-86
2021/04/10 01:29:52;;;;;;;23.97;13.17;;;5.90;97.30;;;;;;5011983;28;20409;-86
2021/04/10 01:32:19;;;;;;;22.30;12.40;;;5.90;97.30;;;;;;5011796;28;20439;-86
2021/04/10 01:34:47;;;;;;;26.07;13.93;;;5.90;97.30;;;;;;5028870;28;20427;-86
2021/04/10 01:37:20;;;;;;;21.50;12.17;;;5.90;97.30;;;;;;5012786;28;20416;-85
2021/04/10 01:39:47;;;;;;;27.23;13.40;;;6.00;97.30;;;;;;5012918;28;20580;-86
2021/04/10 01:42:18;;;;;;;23.80;13.40;;;6.00;97.30;;;;;;5012691;28;20490;-86
2021/04/10 01:44:44;;;;;;;23.07;12.13;;;6.10;97.30;;;;;;5012917;28;20792;-86
2021/04/10 01:47:16;;;;;;;25.57;13.73;;;6.10;97.30;;;;;;5012534;28;20412;-86
2021/04/10 01:49:43;;;;;;;23.67;11.73;;;6.20;97.30;;;;;;5011883;28;20405;-85
2021/04/10 01:52:10;;;;;;;30.67;12.60;;;6.20;97.30;;;;;;5010475;28;21055;-86
2021/04/10 01:55:13;;;;;;;24.77;13.63;;;6.30;97.30;;;;;;5044873;23;20582;-86
2021/04/10 01:57:42;;;;;;;24.70;13.20;;;6.30;97.30;;;;;;4959827;28;20922;-85
2021/04/10 02:00:11;;;;;;;29.73;14.40;;;6.20;97.30;;;;;;5010790;28;20400;-86
2021/04/10 02:02:42;;;;;;;23.03;12.37;;;6.20;97.30;;;;;;5011817;28;20448;-86
2021/04/10 02:05:11;;;;;;;25.43;12.43;;;6.20;97.30;;;;;;5010462;28;20443;-86
2021/04/10 02:07:41;;;;;;;26.47;12.33;;;6.20;97.30;;;;;;5010264;28;20427;-86
2021/04/10 02:10:10;;;;;;;20.77;12.40;;;6.20;97.30;;;;;;5027863;23;20491;-89
2021/04/10 02:12:37;;;;;;;26.00;11.53;;;6.20;97.30;;;;;;5029025;28;20416;-88
2021/04/10 02:15:06;;;;;;;19.03;11.77;;;6.20;97.30;;;;;;5013330;28;20554;-90
2021/04/10 02:17:32;;;;;;;25.63;14.10;;;6.20;97.30;;;;;;5014530;28;20409;-88
2021/04/10 02:19:57;;;;;;;23.63;12.47;;;6.20;97.30;;;;;;5017569;28;20435;-88
2021/04/10 02:22:25;;;;;;;22.70;11.20;;;6.30;97.30;;;;;;5018933;28;20973;-88
2021/04/10 02:24:51;;;;;;;22.80;12.67;;;6.30;97.30;;;;;;5018003;28;20178;-88
2021/04/10 02:27:17;;;;;;;25.47;13.27;;;6.40;97.30;;;;;;5023637;28;20515;-88
2021/04/10 02:29:44;;;;;;;22.20;11.70;;;6.40;97.30;;;;;;5017626;28;20432;-88
2021/04/10 02:32:15;;;;;;;22.37;11.60;;;6.40;97.30;;;;;;5017330;28;20245;-88
2021/04/10 02:34:49;;;;;;;26.13;12.33;;;6.40;97.30;;;;;;5019588;28;20404;-88
2021/04/10 02:37:16;;;;;;;23.00;13.20;;;6.40;97.30;;;;;;5018214;28;20420;-88
2021/04/10 02:39:43;;;;;;;24.80;12.13;;;6.50;97.30;;;;;;5018736;28;20535;-88
2021/04/10 02:42:12;;;;;;;24.13;14.13;;;6.50;97.30;;;;;;5018324;28;20982;-88
2021/04/10 02:44:44;;;;;;;24.50;12.57;;;6.50;97.30;;;;;;5019251;28;20420;-88
2021/04/10 02:47:11;;;;;;;23.00;12.63;;;6.50;97.30;;;;;;5018980;28;20416;-88
2021/04/10 02:49:41;;;;;;;23.60;11.70;;;6.50;97.30;;;;;;5018569;28;20436;-89
2021/04/10 02:52:09;;;;;;;20.80;12.90;;;6.50;97.30;;;;;;5018558;28;20927;-90
2021/04/10 02:54:41;;;;;;;28.03;12.67;;;6.50;97.30;;;;;;5018576;28;21220;-88
2021/04/10 02:57:17;;;;;;;23.83;13.03;;;6.50;97.30;;;;;;5018156;28;20994;-88
2021/04/10 02:59:49;;;;;;;24.20;12.73;;;6.40;97.30;;;;;;5018243;28;20849;-88
2021/04/10 03:02:16;;;;;;;29.20;13.47;;;6.40;97.30;;;;;;5017500;28;20456;-88
2021/04/10 03:04:44;;;;;;;22.87;12.47;;;6.40;97.30;;;;;;5017036;28;20755;-88
2021/04/10 03:07:11;;;;;;;19.93;11.50;;;6.40;97.30;;;;;;5017457;28;20424;-88
2021/04/10 03:09:40;;;;;;;28.80;14.00;;;6.30;97.30;;;;;;5017766;28;20474;-92
2021/04/10 03:12:07;;;;;;;27.00;14.27;;;6.30;97.30;;;;;;5020947;28;20787;-87
2021/04/10 03:14:34;;;;;;;25.60;13.67;;;6.30;97.30;;;;;;5016046;28;20448;-87
2021/04/10 03:17:01;;;;;;;21.70;12.53;;;6.30;97.30;;;;;;5015815;28;20428;-87
2021/04/10 03:19:28;;;;;;;23.83;13.67;;;6.30;97.30;;;;;;5015918;28;20440;-87
2021/04/10 03:21:54;;;;;;;24.90;13.90;;;6.30;97.30;;;;;;5016851;28;20455;-88
2021/04/10 03:24:20;;;;;;;25.40;13.37;;;6.40;97.30;;;;;;5023399;28;20417;-89
2021/04/10 03:26:45;;;;;;;25.50;13.90;;;6.40;97.30;;;;;;5033538;28;20241;-91
2021/04/10 03:29:12;;;;;;;29.17;15.07;;;6.30;97.30;;;;;;5032917;28;20444;-93
2021/04/10 03:31:38;;;;;;;24.80;13.80;;;6.30;97.30;;;;;;5033875;28;20232;-92
2021/04/10 03:34:04;;;;;;;25.80;14.17;;;6.30;97.30;;;;;;5034624;28;20447;-91
2021/04/10 03:36:31;;;;;;;27.90;14.10;;;6.30;97.30;;;;;;5035815;28;20416;-90
2021/04/10 03:38:57;;;;;;;28.13;13.23;;;6.30;97.30;;;;;;5030833;28;20447;-91
2021/04/10 03:41:23;;;;;;;27.07;13.60;;;6.20;97.30;;;;;;5032870;28;20459;-90
2021/04/10 03:43:49;;;;;;;27.70;14.57;;;6.30;97.30;;;;;;5037492;28;20161;-91
2021/04/10 03:46:15;;;;;;;27.13;14.50;;;6.30;97.30;;;;;;5037511;28;20208;-90
2021/04/10 03:48:41;;;;;;;26.80;13.50;;;6.30;97.30;;;;;;5036111;28;20405;-89
2021/04/10 03:51:06;;;;;;;27.67;15.00;;;6.30;97.30;;;;;;5034787;28;20428;-90
2021/04/10 03:53:32;;;;;;;30.80;14.90;;;6.30;97.30;;;;;;5031119;28;20183;-88
2021/04/10 03:55:58;;;;;;;32.70;15.20;;;6.30;97.30;;;;;;5026934;28;20193;-86
2021/04/10 03:58:23;;;;;;;30.57;14.50;;;6.20;97.30;;;;;;5025910;28;20180;-87
2021/04/10 04:00:49;;;;;;;27.00;14.07;;;6.20;97.30;;;;;;5022130;28;20208;-87
2021/04/10 04:03:15;;;;;;;35.23;16.17;;;6.20;97.30;;;;;;5021295;28;20239;-87
2021/04/10 04:05:40;;;;;;;29.40;15.83;;;6.20;97.30;;;;;;5021495;28;20165;-86
2021/04/10 04:08:06;;;;;;;38.17;17.00;;;6.20;97.30;;;;;;5020124;28;20180;-86
2021/04/10 04:10:32;;;;;;;32.00;15.67;;;6.20;97.30;;;;;;5018690;28;20251;-86
2021/04/10 04:12:58;;;;;;;29.10;15.87;;;6.10;97.30;;;;;;5018066;28;20424;-86
2021/04/10 04:15:23;;;;;;;36.37;16.17;;;6.10;97.30;;;;;;5017622;28;20177;-87
2021/04/10 04:17:49;;;;;;;30.43;16.40;;;6.10;97.30;;;;;;5017546;28;20201;-86
2021/04/10 04:20:15;;;;;;;32.37;15.87;;;6.00;97.30;;;;;;5018348;28;20304;-86
2021/04/10 04:22:40;;;;;;;29.40;16.47;;;6.00;97.30;;;;;;5017322;28;20871;-85
2021/04/10 04:25:07;;;;;;;33.30;16.30;;;6.00;97.30;;;;;;5017213;28;20177;-86
2021/04/10 04:27:35;;;;;;;35.43;17.73;;;5.90;97.30;;;;;;5016716;28;20243;-86
2021/04/10 04:30:02;;;;;;;35.73;17.93;;;5.90;97.30;;;;;;5016803;28;21017;-86
2021/04/10 04:32:27;;;;;;;30.67;16.50;;;5.90;97.30;;;;;;5016404;28;20518;-86
2021/04/10 04:34:53;;;;;;;33.27;15.70;;;5.90;97.30;;;;;;5016077;28;20462;-86
2021/04/10 04:37:19;;;;;;;39.23;18.10;;;5.90;97.30;;;;;;5016723;28;20181;-86
2021/04/10 04:39:44;;;;;;;37.77;17.57;;;5.90;97.30;;;;;;5018325;28;20544;-86
2021/04/10 04:42:10;;;;;;;38.30;17.47;;;5.90;97.30;;;;;;5016528;28;20703;-86
2021/04/10 04:44:36;;;;;;;39.80;17.57;;;6.00;97.30;;;;;;5018329;28;20655;-86
2021/04/10 04:47:01;;;;;;;29.00;15.60;;;6.00;97.30;;;;;;5016965;28;20416;-86
2021/04/10 04:49:27;;;;;;;33.47;17.17;;;6.00;97.30;;;;;;5017530;28;20219;-86
2021/04/10 04:51:54;;;;;;;38.03;17.83;;;6.00;97.30;;;;;;5017393;28;20174;-86
2021/04/10 04:54:20;;;;;;;32.60;16.53;;;6.00;97.30;;;;;;5016145;28;20193;-86
2021/04/10 04:56:46;;;;;;;38.13;16.90;;;6.00;97.30;;;;;;5016311;28;20420;-87
2021/04/10 04:59:11;;;;;;;36.40;16.77;;;6.00;97.30;;;;;;5016539;28;20440;-86
2021/04/10 05:01:37;;;;;;;40.93;17.77;;;6.00;97.30;;;;;;5015315;28;20203;-86
2021/04/10 05:04:02;;;;;;;38.33;19.00;;;6.00;97.30;;;;;;5016798;28;20543;-86
2021/04/10 05:06:28;;;;;;;39.73;18.57;;;6.00;97.30;;;;;;5023739;28;20173;-86
2021/04/10 05:08:54;;;;;;;38.33;18.60;;;6.00;97.30;;;;;;5017360;28;20189;-88
2021/04/10 05:11:19;;;;;;;40.03;19.10;;;6.00;97.30;;;;;;5018028;28;20189;-87
2021/04/10 05:13:45;;;;;;;37.10;17.77;;;6.10;97.30;;;;;;5016592;28;20271;-85
2021/04/10 05:16:11;;;;;;;38.07;18.30;;;6.10;97.30;;;;;;5017459;28;20228;-86
2021/04/10 05:18:36;;;;;;;38.00;18.63;;;6.10;97.30;;;;;;5015521;28;20208;-86
2021/04/10 05:21:02;;;;;;;37.90;18.73;;;6.10;97.30;;;;;;5017133;28;20201;-86
2021/04/10 05:23:28;;;;;;;40.00;17.03;;;6.20;97.30;;;;;;5014966;28;20224;-86
2021/04/10 05:25:53;;;;;;;32.63;16.50;;;6.20;97.30;;;;;;5014057;28;20790;-86
2021/04/10 05:28:19;;;;;;;38.83;16.73;;;6.20;97.30;;;;;;5013468;28;20191;-86
2021/04/10 05:30:45;;;;;;;36.00;18.00;;;6.30;97.30;;;;;;5016666;23;20240;-74
2021/04/10 05:33:12;;;;;;;40.00;18.47;;;6.30;97.30;;;;;;5011037;28;20928;-74
2021/04/10 05:35:38;;;;;;;41.47;18.50;;;6.30;97.30;;;;;;5009594;28;20448;-74
2021/04/10 05:38:04;;;;;;;39.03;19.27;;;6.30;97.30;;;;;;5009805;28;20503;-74
2021/04/10 05:40:30;;;;;;;41.93;19.27;;;6.30;97.30;;;;;;5009606;28;20508;-74
2021/04/10 05:42:56;;;;;;;45.27;20.40;;;6.30;97.30;;;;;;5010366;28;20503;-74
2021/04/10 05:45:22;;;;;;;38.70;19.43;;;6.20;97.30;;;;;;5010911;28;20169;-74
2021/04/10 05:47:48;;;;;;;41.67;20.40;;;6.20;97.30;;;;;;5011821;28;20795;-74
2021/04/10 05:50:13;;;;;;;46.50;20.70;;;6.10;97.30;;;;;;5015935;28;20180;-74
2021/04/10 05:52:39;;;;;;;37.23;19.17;;;6.10;97.30;;;;;;5009951;28;20648;-74
2021/04/10 05:55:06;;;;;;;43.63;19.93;;;6.10;97.30;;;;;;5013307;28;20183;-74
2021/04/10 05:57:32;;;;;;;45.43;21.00;;;6.10;97.30;;;;;;5013361;28;20226;-74
2021/04/10 05:59:58;;;;;;;41.63;20.17;;;6.10;97.30;;;;;;5014676;28;20420;-74
2021/04/10 06:02:24;;;;;;;40.97;19.57;;;6.10;97.30;;;;;;5013291;28;20292;-74
2021/04/10 06:04:51;;;;;;;41.80;20.73;;;6.20;97.30;;;;;;5013407;28;20648;-74
2021/04/10 06:07:17;;;;;;;41.47;19.67;;;6.20;97.30;;;;;;5014280;28;20408;-74
2021/04/10 06:09:43;;;;;;;39.47;20.53;;;6.20;97.30;;;;;;5013227;28;20922;-74
2021/04/10 06:12:09;;;;;;;48.00;21.00;;;6.20;97.30;;;;;;5013220;28;20530;-74
2021/04/10 06:14:34;;;;;;;46.10;21.53;;;6.20;97.30;;;;;;5012970;28;20188;-74
2021/04/10 06:17:00;;;;;;;40.40;19.53;;;6.20;97.30;;;;;;5012968;28;20424;-74
2021/04/10 06:19:26;;;;;;;36.80;20.27;;;6.30;97.30;;;;;;5012888;28;20181;-74
2021/04/10 06:21:51;;;;;;;46.20;20.60;;;6.30;97.30;;;;;;5014150;28;20291;-74
2021/04/10 06:24:18;;;;;;;42.67;19.27;;;6.30;97.30;;;;;;5012742;28;20318;-74
2021/04/10 06:26:45;;;;;;;39.33;19.30;;;6.40;97.30;;;;;;5013011;28;20177;-74
2021/04/10 06:29:11;;;;;;;42.47;19.40;;;6.40;97.30;;;;;;5012702;28;20460;-74
2021/04/10 06:31:37;;;;;;;42.47;20.00;;;6.40;97.30;;;;;;5012544;28;20444;-74
2021/04/10 06:34:04;;;;;;;43.70;20.00;;;6.50;97.30;;;;;;5012447;28;20768;-74
2021/04/10 06:36:29;;;;;;;46.37;20.63;;;6.60;97.30;;;;;;5013951;28;20422;-74
2021/04/10 06:38:56;;;;;;;42.33;22.03;;;6.70;97.30;;;;;;5013952;28;20499;-74
2021/04/10 06:41:22;;;;;;;50.20;20.50;;;6.70;97.30;;;;;;5012714;28;20263;-74
2021/04/10 06:43:49;;;;;;;38.10;19.70;;;6.70;97.30;;;;;;5012790;28;20443;-74
2021/04/10 06:46:15;;;;;;;40.17;19.90;;;6.80;97.30;;;;;;5013477;28;20408;-74
2021/04/10 06:48:43;;;;;;;42.07;19.57;;;6.80;97.30;;;;;;5012613;28;20444;-74
2021/04/10 06:51:12;;;;;;;35.10;17.73;;;6.80;97.30;;;;;;5013418;28;20921;-74
2021/04/10 06:53:45;;;;;;;45.43;21.13;;;6.90;97.30;;;;;;5012277;28;20416;-74
2021/04/10 06:56:17;;;;;;;35.47;19.13;;;6.90;97.30;;;;;;5013633;28;20448;-74
2021/04/10 06:58:51;;;;;;;40.40;19.43;;;6.90;97.30;;;;;;5013487;28;20451;-74
2021/04/10 07:01:19;;;;;;;36.53;18.40;;;6.90;97.30;;;;;;5013533;28;20990;-74
2021/04/10 07:03:45;;;;;;;37.57;18.30;;;6.90;97.30;;;;;;5011980;28;20421;-74
2021/04/10 07:06:12;;;;;;;38.20;19.17;;;7.00;97.30;;;;;;5012116;28;20412;-74
2021/04/10 07:08:38;;;;;;;33.73;18.23;;;7.00;97.30;;;;;;5011945;28;20424;-74
2021/04/10 07:11:04;;;;;;;40.77;18.27;;;7.00;97.30;;;;;;5011937;28;20523;-74
2021/04/10 07:13:32;;;;;;;38.53;20.40;;;7.00;97.30;;;;;;5012169;28;20799;-74
2021/04/10 07:16:01;;;;;;;38.80;19.00;;;7.00;97.30;;;;;;5013279;28;20416;-74
2021/04/10 07:18:30;;;;;;;42.67;18.67;;;7.00;97.30;;;;;;5012208;28;20503;-74
2021/04/10 07:21:14;;;;;;;37.37;19.93;;;7.00;97.30;;;;;;5013034;28;20452;-74
2021/04/10 07:23:51;;;;;;;40.30;19.73;;;7.00;97.30;;;;;;5011780;28;20417;-74
2021/04/10 07:26:20;;;;;;;40.53;19.50;;;7.00;97.30;;;;;;5011930;28;20403;-74
2021/04/10 07:28:47;;;;;;;36.17;18.83;;;7.10;97.30;;;;;;5012740;28;20416;-76
2021/04/10 07:31:16;;;;;;;37.40;19.20;;;7.10;97.30;;;;;;5011362;28;20498;-74
2021/04/10 07:33:44;;;;;;;35.97;18.27;;;7.20;97.30;;;;;;5012873;28;20411;-74
2021/04/10 07:36:11;;;;;;;42.00;19.20;;;7.20;97.30;;;;;;5011502;28;20427;-74
2021/04/10 07:38:41;;;;;;;39.33;19.40;;;7.30;97.30;;;;;;5011506;28;20424;-74
2021/04/10 07:41:19;;;;;;;38.50;18.77;;;7.30;97.30;;;;;;5011017;28;20464;-74
2021/04/10 07:43:45;;;;;;;37.60;17.90;;;7.30;97.30;;;;;;5012615;28;20470;-74
2021/04/10 07:46:12;;;;;;;33.10;17.37;;;7.40;97.30;;;;;;5011236;28;20415;-74
2021/04/10 07:48:39;;;;;;;37.60;20.00;;;7.40;97.30;;;;;;5011492;28;20416;-74
2021/04/10 07:51:13;;;;;;;35.90;18.87;;;7.50;97.30;;;;;;5011192;28;20459;-74
2021/04/10 07:53:39;;;;;;;32.97;18.17;;;7.50;97.30;;;;;;5012392;28;20469;-74
2021/04/10 07:56:05;;;;;;;34.67;18.97;;;7.50;97.30;;;;;;5011366;28;20424;-74
2021/04/10 07:58:34;;;;;;;38.87;18.37;;;7.50;97.30;;;;;;5012427;28;20261;-74
2021/04/10 08:01:02;;;;;;;38.33;18.93;;;7.50;97.30;;;;;;5012190;28;20201;-74
2021/04/10 08:03:34;;;;;;;39.07;18.20;;;7.50;97.30;;;;;;5011142;28;20420;-74
2021/04/10 08:06:06;;;;;;;34.10;18.70;;;7.50;97.30;;;;;;5011149;28;20426;-73
2021/04/10 08:08:47;;;;;;;36.73;17.53;;;7.50;97.30;;;;;;5012266;28;20412;-74
2021/04/10 08:11:13;;;;;;;36.40;18.10;;;7.50;97.30;;;;;;5038128;23;20920;-67
2021/04/10 08:13:51;;;;;;;35.00;18.83;;;7.50;97.30;;;;;;5030329;28;20945;-68
2021/04/10 08:16:19;;;;;;;35.93;17.80;;;7.50;97.30;;;;;;5029706;28;20415;-68
2021/04/10 08:19:03;;;;;;;34.87;18.97;;;7.50;97.30;;;;;;5031715;28;20396;-69
2021/04/10 08:21:34;;;;;;;36.03;17.83;;;7.50;97.30;;;;;;5030280;28;20462;-66
2021/04/10 08:24:02;;;;;;;44.33;21.53;;;7.60;97.30;;;;;;5031347;28;20431;-68
2021/04/10 08:26:29;;;;;;;41.77;21.03;;;7.60;97.30;;;;;;5031432;28;20415;-68
2021/04/10 08:28:55;;;;;;;39.20;19.97;;;7.70;97.30;;;;;;5030101;28;20491;-68
2021/04/10 08:31:21;;;;;;;35.73;18.97;;;7.70;97.30;;;;;;5031073;28;20529;-68
2021/04/10 08:33:47;;;;;;;37.50;18.97;;;7.60;97.30;;;;;;5031231;28;20498;-68
2021/04/10 08:36:17;;;;;;;38.53;20.00;;;7.60;97.30;;;;;;5031372;28;20430;-68
2021/04/10 08:38:43;;;;;;;42.50;19.10;;;7.60;97.30;;;;;;5029649;28;20408;-68
2021/04/10 08:41:12;;;;;;;40.97;19.57;;;7.60;97.30;;;;;;5031591;28;20817;-68
2021/04/10 08:43:50;;;;;;;38.87;19.13;;;7.70;97.30;;;;;;5029596;28;20427;-68
2021/04/10 08:46:19;;;;;;;34.13;18.67;;;7.70;97.30;;;;;;5030159;28;20407;-67
2021/04/10 08:48:51;;;;;;;35.60;18.57;;;7.60;97.30;;;;;;5029778;28;20834;-68
2021/04/10 08:51:17;;;;;;;37.57;19.37;;;7.60;97.30;;;;;;5030816;28;20465;-68
2021/04/10 08:53:48;;;;;;;39.93;18.97;;;7.70;97.30;;;;;;5029793;28;20412;-68
2021/04/10 08:56:19;;;;;;;35.80;18.90;;;7.70;97.30;;;;;;5030504;28;20408;-69
2021/04/10 08:58:45;;;;;;;33.10;18.73;;;7.70;97.30;;;;;;5030792;28;20442;-68
2021/04/10 09:01:23;;;;;;;40.27;19.87;;;7.70;97.30;;;;;;5029113;28;20890;-68
2021/04/10 09:03:50;;;;;;;40.37;20.00;;;7.70;97.30;;;;;;5029454;28;20172;-68
2021/04/10 09:06:29;;;;;;;34.10;19.43;;;7.70;97.30;;;;;;5029797;28;20447;-68
2021/04/10 09:09:18;;;;;;;33.27;18.07;;;7.80;97.30;;;;;;5030769;28;20424;-68
2021/04/10 09:11:46;;;;;;;36.10;20.03;;;7.80;97.30;;;;;;5029232;28;20528;-68
2021/04/10 09:14:16;;;;;;;40.57;20.70;;;7.80;97.30;;;;;;5029747;28;20484;-68
2021/04/10 09:16:45;;;;;;;43.23;20.50;;;7.80;97.30;;;;;;5030698;28;20411;-68
2021/04/10 09:19:11;;;;;;;37.20;19.97;;;7.90;97.30;;;;;;5027815;28;20419;-68
2021/04/10 09:22:00;;;;;;;37.80;20.23;;;7.90;97.30;;;;;;5028187;28;20537;-68
2021/04/10 09:24:40;;;;;;;35.67;20.83;;;7.90;97.30;;;;;;5029668;28;20145;-69
2021/04/10 09:27:18;;;;;;;34.67;18.40;;;7.90;97.30;;;;;;5029009;28;20403;-68
2021/04/10 09:29:47;;;;;;;31.97;18.03;;;7.90;97.30;;;;;;5030352;28;20457;-68
2021/04/10 09:32:13;;;;;;;41.00;18.67;;;7.90;97.30;;;;;;5030611;28;20435;-67
2021/04/10 09:34:53;;;;;;;39.00;19.47;;;8.00;97.30;;;;;;5030688;28;20495;-68
2021/04/10 09:37:22;;;;;;;35.07;17.80;;;8.00;97.30;;;;;;5029321;28;20506;-68
2021/04/10 09:40:05;;;;;;;40.80;20.03;;;8.00;97.30;;;;;;5030463;28;20910;-68
2021/04/10 09:45:31;;;;;;;34.07;18.33;;;8.20;97.30;;;;;;5031072;28;20404;-68
2021/04/10 09:50:28;;;;;;;34.30;17.37;;;8.30;97.30;;;;;;5030342;28;20785;-68
2021/04/10 09:52:58;;;;;;;35.73;18.43;;;8.30;97.30;;;;;;5029081;28;20957;-68
2021/04/10 09:55:25;;;;;;;32.60;17.33;;;8.40;97.30;;;;;;5029539;28;20452;-69
2021/04/10 09:57:59;;;;;;;35.63;17.07;;;8.40;97.30;;;;;;5028957;28;20506;-69
2021/04/10 10:00:39;;;;;;;32.10;18.83;;;8.50;97.30;;;;;;5028995;28;20477;-68
2021/04/10 10:03:07;;;;;;;40.13;20.50;;;8.50;97.30;;;;;;5030364;28;20419;-68
2021/04/10 10:05:43;;;;;;;37.47;18.87;;;8.60;97.30;;;;;;5030578;28;20403;-68
2021/04/10 10:08:11;;;;;;;28.97;15.13;;;8.70;97.30;;;;;;5030370;28;20395;-67
2021/04/10 10:10:51;;;;;;;27.67;15.80;;;8.60;97.30;;;;;;5029934;28;20499;-69
2021/04/10 10:13:20;;;;;;;28.33;15.30;;;8.70;97.30;;;;;;5030095;28;20922;-68
2021/04/10 10:15:48;;;;;;;29.07;16.10;;;8.80;97.30;;;;;;5030466;28;20422;-68
2021/04/10 10:18:27;;;;;;;34.20;18.57;;;8.80;97.30;;;;;;5029036;28;20485;-68
2021/04/10 10:20:53;;;;;;;37.20;17.47;;;8.80;97.30;;;;;;5029007;28;20439;-68
2021/04/10 10:23:19;;;;;;;33.23;18.40;;;8.70;97.30;;;;;;5030590;28;20421;-68
2021/04/10 10:25:45;;;;;;;34.00;18.20;;;8.70;97.30;;;;;;5030413;28;20165;-68
2021/04/10 10:28:17;;;;;;;30.67;18.37;;;8.80;97.30;;;;;;5030019;28;20407;-68
2021/04/10 10:30:45;;;;;;;33.57;17.97;;;8.90;97.30;;;;;;5028791;28;20804;-67
2021/04/10 10:33:11;;;;;;;26.27;16.70;;;9.00;97.30;;;;;;5030247;28;20411;-68
2021/04/10 10:35:38;;;;;;;28.50;17.60;;;9.10;97.30;;;;;;5030001;28;20403;-68
2021/04/10 10:38:06;;;;;;;31.53;16.57;;;9.10;97.30;;;;;;5030026;28;20443;-68
2021/04/10 10:40:32;;;;;;;27.90;17.50;;;9.10;97.30;;;;;;5032561;28;20442;-68
2021/04/10 10:43:04;;;;;;;24.90;15.30;;;9.20;97.30;;;;;;5033603;28;20458;-68
2021/04/10 10:45:51;;;;;;;28.77;16.43;;;9.20;97.30;;;;;;5032398;28;20441;-68
2021/04/10 10:48:24;;;;;;;33.50;17.43;;;9.10;97.30;;;;;;5031876;28;20434;-68
2021/04/10 10:51:04;;;;;;;30.33;16.43;;;9.10;97.30;;;;;;5028891;23;20527;-85
2021/04/10 10:54:06;;;;;;;26.60;16.40;;;9.10;97.30;;;;;;5016266;28;20899;-83
2021/04/10 10:56:45;;;;;;;26.40;16.03;;;9.10;97.30;;;;;;5014158;28;20411;-84
2021/04/10 11:02:45;;;;;;;35.43;19.17;;;9.10;97.30;;;;;;5017693;23;20503;-84
2021/04/10 11:05:16;;;;;;;37.43;20.60;;;9.20;97.30;;;;;;4976906;28;20417;-86
2021/04/10 11:07:44;;;;;;;40.77;22.10;;;9.30;97.30;;;;;;4977449;28;20528;-82
2021/04/10 11:10:26;;;;;;;39.00;22.10;;;9.30;97.30;;;;;;4993105;28;20429;-84
2021/04/10 11:13:04;;;;;;;39.83;20.93;;;9.20;97.30;;;;;;4976898;28;20471;-85
2021/04/10 11:15:44;;;;;;;37.33;20.40;;;9.20;97.30;;;;;;5006699;23;20475;-82
2021/04/10 11:18:35;;;;;;;39.57;20.50;;;9.20;97.30;;;;;;4992706;28;20421;-85
2021/04/10 11:21:41;;;;;;;37.50;20.90;;;9.20;97.30;;;;;;4995690;28;20750;-83
2021/04/10 11:24:46;;;;;;;38.90;21.33;;;9.20;97.30;;;;;;4993552;28;20431;-85
2021/04/10 11:27:25;;;;;;;42.00;20.30;;;9.30;97.30;;;;;;4987306;28;20437;-85
2021/04/10 11:30:24;;;;;;;39.93;21.87;;;9.40;97.30;;;;;;4993967;28;20488;-85
2021/04/10 11:32:56;;;;;;;36.03;19.90;;;9.50;97.30;;;;;;4987279;28;20496;-85
2021/04/10 11:35:25;;;;;;;30.60;18.50;;;9.60;97.30;;;;;;5001848;23;20417;-68
2021/04/10 11:37:56;;;;;;;33.97;19.20;;;9.70;97.30;;;;;;5007686;28;20457;-67
2021/04/10 11:40:29;;;;;;;35.97;18.60;;;9.60;97.30;;;;;;4991380;28;20417;-67
2021/04/10 11:43:00;;;;;;;30.57;17.40;;;9.70;97.30;;;;;;4991561;28;20453;-67
2021/04/10 11:45:31;;;;;;;33.67;18.33;;;9.80;97.30;;;;;;4992759;28;20447;-67
2021/04/10 11:48:19;;;;;;;40.70;21.03;;;9.90;97.30;;;;;;4992822;28;20916;-67
2021/04/10 11:51:00;;;;;;;31.43;18.53;;;10.00;97.30;;;;;;4991807;28;20798;-67
2021/04/10 11:53:37;;;;;;;35.57;19.30;;;10.10;97.30;;;;;;4991459;28;20405;-67
2021/04/10 11:56:27;;;;;;;33.20;18.17;;;10.20;97.30;;;;;;4991675;28;20419;-67
2021/04/10 11:59:03;;;;;;;33.00;19.53;;;10.30;97.30;;;;;;4991276;28;20425;-67
2021/04/10 12:01:29;;;;;;;28.93;17.67;;;10.40;97.30;;;;;;4992818;28;20449;-67
2021/04/10 12:04:00;;;;;;;27.37;17.90;;;10.40;97.30;;;;;;4991407;28;20947;-67
2021/04/10 12:06:36;;;;;;;26.10;16.23;;;10.30;97.30;;;;;;4992546;28;20688;-67
2021/04/10 12:09:12;;;;;;;24.17;15.50;;;10.20;97.30;;;;;;4991523;28;20413;-67
2021/04/10 12:11:39;;;;;;;24.50;15.90;;;10.00;97.30;;;;;;4992739;28;20527;-68
2021/04/10 12:14:12;;;;;;;31.93;16.00;;;9.90;97.30;;;;;;4992235;28;20409;-67
2021/04/10 12:16:39;;;;;;;23.63;14.07;;;9.90;97.30;;;;;;4991177;28;20405;-66
2021/04/10 12:19:05;;;;;;;25.57;15.80;;;9.80;97.30;;;;;;4990630;28;20511;-67
2021/04/10 12:21:31;;;;;;;22.97;14.20;;;9.80;97.30;;;;;;4991015;28;20940;-67
2021/04/10 12:23:57;;;;;;;26.07;15.90;;;9.80;97.30;;;;;;4991963;28;20422;-67
2021/04/10 12:26:23;;;;;;;29.57;16.70;;;9.90;97.30;;;;;;4992145;28;20768;-67
2021/04/10 12:28:48;;;;;;;28.70;16.90;;;9.90;97.30;;;;;;4990594;28;20525;-67
2021/04/10 12:31:14;;;;;;;23.70;15.00;;;10.00;97.30;;;;;;4992192;28;20194;-67
2021/04/10 12:33:41;;;;;;;25.23;15.40;;;10.00;97.30;;;;;;4991773;28;20181;-67
2021/04/10 12:36:08;;;;;;;24.07;14.33;;;10.00;97.30;;;;;;4990543;28;20229;-67
2021/04/10 12:38:35;;;;;;;25.53;15.77;;;10.10;97.30;;;;;;4990781;28;20864;-67
2021/04/10 12:41:01;;;;;;;31.13;16.57;;;10.10;97.30;;;;;;4990176;28;20545;-67
2021/04/10 12:43:27;;;;;;;29.17;16.67;;;10.20;97.30;;;;;;4991783;28;20424;-67
2021/04/10 12:45:52;;;;;;;24.40;14.83;;;10.20;97.30;;;;;;4990399;28;20421;-67
2021/04/10 12:48:18;;;;;;;25.20;15.40;;;10.20;97.30;;;;;;4973148;28;20257;-67
2021/04/10 12:50:44;;;;;;;28.47;16.27;;;10.10;97.30;;;;;;4970823;28;20571;-67
2021/04/10 12:53:10;;;;;;;31.00;17.00;;;10.10;97.30;;;;;;4972808;28;20178;-67
2021/04/10 12:55:35;;;;;;;27.87;16.40;;;10.00;97.30;;;;;;4979444;28;20197;-67
2021/04/10 12:58:01;;;;;;;33.20;16.70;;;10.00;97.30;;;;;;4981439;28;20182;-67
2021/04/10 13:00:27;;;;;;;27.50;17.33;;;10.00;97.30;;;;;;4979465;28;20558;-66
2021/04/10 13:02:53;;;;;;;28.87;17.27;;;10.00;97.30;;;;;;4979815;28;20252;-66
2021/04/10 13:05:19;;;;;;;29.33;17.00;;;10.00;97.30;;;;;;4980763;28;20166;-66
2021/04/10 13:07:45;;;;;;;35.10;18.53;;;10.00;97.30;;;;;;4978860;28;20174;-67